createdAt,value
2023-01-20T06:17:32.653Z,76.10
2023-01-20T06:20:06.847Z,71.97
2023-01-20T06:22:34.145Z,76.03
2023-01-20T06:25:01.556Z,139.73
2023-01-20T06:27:29.029Z,126.97
2023-01-20T06:29:56.584Z,81.43
2023-01-20T06:32:24.056Z,74.60
2023-01-20T06:34:53.114Z,77.80
2023-01-20T06:37:20.621Z,65.70
2023-01-20T06:39:48.019Z,72.77
2023-01-20T06:42:16.787Z,70.37
2023-01-20T06:44:44.154Z,68.77
2023-01-20T06:47:11.495Z,70.73
2023-01-20T06:49:38.879Z,65.20
2023-01-20T06:52:06.660Z,66.27
2023-01-20T06:54:34.136Z,63.73
2023-01-20T06:57:01.562Z,65.00
2023-01-20T06:59:31.813Z,62.13
2023-01-20T07:01:59.214Z,63.33
2023-01-20T07:04:26.659Z,67.70
2023-01-20T07:06:54.095Z,63.70
2023-01-20T07:09:22.956Z,73.57
2023-01-20T07:11:50.785Z,66.00
2023-01-20T07:14:18.451Z,65.77
2023-01-20T07:16:49.050Z,67.93
2023-01-20T07:19:16.929Z,68.63
2023-01-20T07:21:45.131Z,69.95
2023-01-20T07:24:12.484Z,68.77
2023-01-20T07:26:40.848Z,64.67
2023-01-20T07:29:09.577Z,66.67
2023-01-20T07:31:39.679Z,64.17
2023-01-20T07:34:07.129Z,72.40
2023-01-20T07:36:34.545Z,61.53
2023-01-20T07:39:01.900Z,65.80
2023-01-20T07:41:29.337Z,68.27
2023-01-20T07:43:57.009Z,68.57
2023-01-20T07:46:24.314Z,62.57
2023-01-20T07:48:51.649Z,66.37
2023-01-20T07:51:18.994Z,70.00
2023-01-20T07:53:47.645Z,68.50
2023-01-20T07:56:16.274Z,72.80
2023-01-20T07:58:47.636Z,70.60
2023-01-20T08:01:22.578Z,70.57
2023-01-20T08:03:51.268Z,73.93
2023-01-20T08:06:20.105Z,73.57
2023-01-20T08:08:47.569Z,70.80
2023-01-20T08:11:15.952Z,73.63
2023-01-20T08:13:43.771Z,74.10
2023-01-20T08:16:12.547Z,76.50
2023-01-20T08:18:40.334Z,69.47
2023-01-20T08:21:08.524Z,75.90
2023-01-20T08:23:36.783Z,73.60
2023-01-20T08:26:05.772Z,65.80
2023-01-20T08:28:36.503Z,67.07
2023-01-20T08:31:14.715Z,64.63
2023-01-20T08:33:42.709Z,65.57
2023-01-20T08:36:11.771Z,60.50
2023-01-20T08:38:39.501Z,57.87
2023-01-20T08:41:08.186Z,56.33
2023-01-20T08:43:35.592Z,56.60
2023-01-20T08:46:04.392Z,52.07
2023-01-20T08:48:31.829Z,53.90
2023-01-20T08:50:59.177Z,55.87
2023-01-20T08:53:26.960Z,56.30
2023-01-20T08:55:57.875Z,51.83
2023-01-20T08:58:25.719Z,53.73
2023-01-20T09:00:53.246Z,53.70
2023-01-20T09:03:21.104Z,50.57
2023-01-20T09:05:48.637Z,54.07
2023-01-20T09:08:17.439Z,55.57
2023-01-20T09:10:45.594Z,47.33
2023-01-20T09:13:13.211Z,54.57
2023-01-20T09:15:40.594Z,56.53
2023-01-20T09:18:08.023Z,51.60
2023-01-20T09:20:35.407Z,55.67
2023-01-20T09:23:03.243Z,53.50
2023-01-20T09:25:30.784Z,56.57
2023-01-20T09:28:01.070Z,55.70
2023-01-20T09:30:28.768Z,52.40
2023-01-20T09:32:58.076Z,51.60
2023-01-20T09:35:25.451Z,51.80
2023-01-20T09:38:11.953Z,55.03
2023-01-20T09:41:07.955Z,54.37
2023-01-20T09:43:54.105Z,55.47
2023-01-20T09:46:30.329Z,54.80
2023-01-20T09:49:27.526Z,53.67
2023-01-20T09:52:32.484Z,48.70
2023-01-20T09:55:10.377Z,49.30
2023-01-20T09:57:40.524Z,54.33
2023-01-20T10:00:19.444Z,53.57
2023-01-20T10:02:49.605Z,51.07
2023-01-20T10:05:21.648Z,53.03
2023-01-20T10:07:50.726Z,53.77
2023-01-20T10:10:21.010Z,54.90
2023-01-20T10:12:50.398Z,125.30
2023-01-20T10:15:21.453Z,63.00
2023-01-20T10:17:48.750Z,74.70
2023-01-20T10:20:42.565Z,62.67
2023-01-20T10:23:25.552Z,52.20
2023-01-20T10:25:58.417Z,49.43
2023-01-20T10:28:31.162Z,47.30
2023-01-20T10:31:00.697Z,47.70
2023-01-20T10:33:33.568Z,47.87
2023-01-20T10:36:01.206Z,57.13
2023-01-20T10:38:34.334Z,52.73
2023-01-20T10:41:06.882Z,53.83
2023-01-20T10:43:34.281Z,57.60
2023-01-20T10:46:01.660Z,73.13
2023-01-20T10:48:45.173Z,71.40
2023-01-20T10:51:15.510Z,48.97
2023-01-20T10:53:46.033Z,97.70
2023-01-20T10:56:16.619Z,57.53
2023-01-20T10:58:47.783Z,58.33
2023-01-20T11:01:17.375Z,55.47
2023-01-20T11:03:47.513Z,47.33
2023-01-20T11:06:26.681Z,52.33
2023-01-20T11:08:55.406Z,47.40
2023-01-20T11:11:24.374Z,48.53
2023-01-20T11:13:52.811Z,52.23
2023-01-20T11:16:24.138Z,50.20
2023-01-20T11:19:02.080Z,57.57
2023-01-20T11:21:31.286Z,46.03
2023-01-20T11:23:59.402Z,43.80
2023-01-20T11:26:38.709Z,46.77
2023-01-20T11:29:12.282Z,44.27
2023-01-20T11:31:49.123Z,42.87
2023-01-20T11:34:29.203Z,37.70
2023-01-20T11:37:05.804Z,38.43
2023-01-20T11:39:33.887Z,42.57
2023-01-20T11:42:20.683Z,44.40
2023-01-20T11:44:49.061Z,45.90
2023-01-20T11:47:27.449Z,43.33
2023-01-20T11:50:10.080Z,48.43
2023-01-20T11:52:43.601Z,44.53
2023-01-20T11:55:14.279Z,43.60
2023-01-20T11:57:53.055Z,39.77
2023-01-20T12:00:20.335Z,41.83
2023-01-20T12:03:06.306Z,37.63
2023-01-20T12:05:33.824Z,37.87
2023-01-20T12:08:03.555Z,42.07
2023-01-20T12:10:33.059Z,41.50
2023-01-20T12:13:09.529Z,42.87
2023-01-20T12:15:40.635Z,42.53
2023-01-20T12:18:14.134Z,44.93
2023-01-20T12:20:54.486Z,46.33
2023-01-20T12:23:25.666Z,95.50
2023-01-20T12:26:02.601Z,58.13
2023-01-20T12:28:35.072Z,58.27
2023-01-20T12:31:06.939Z,52.80
2023-01-20T12:33:36.173Z,55.47
2023-01-20T12:36:16.871Z,53.43
2023-01-20T12:38:53.846Z,49.37
2023-01-20T12:41:39.893Z,50.23
2023-01-20T12:44:10.358Z,47.17
2023-01-20T12:46:58.656Z,51.17
2023-01-20T12:49:46.313Z,45.40
2023-01-20T12:52:24.997Z,38.80
2023-01-20T12:55:03.575Z,42.57
2023-01-20T12:57:33.955Z,36.97
2023-01-20T13:00:01.378Z,35.13
2023-01-20T13:02:47.515Z,37.13
2023-01-20T13:05:26.687Z,32.83
2023-01-20T13:08:06.256Z,30.43
2023-01-20T13:10:36.649Z,31.80
2023-01-20T13:13:23.111Z,34.50
2023-01-20T13:16:13.854Z,31.63
2023-01-20T13:18:56.715Z,30.87
2023-01-20T13:21:24.178Z,34.83
2023-01-20T13:23:52.609Z,31.10
2023-01-20T13:26:20.221Z,28.83
2023-01-20T13:28:54.991Z,27.97
2023-01-20T13:31:37.676Z,27.53
2023-01-20T13:38:43.340Z,27.23
2023-01-20T13:41:11.792Z,24.40
2023-01-20T13:43:44.791Z,28.30
2023-01-20T13:46:13.710Z,26.27
2023-01-20T13:48:45.166Z,29.83
2023-01-20T13:51:27.808Z,25.87
2023-01-20T13:53:55.238Z,24.17
2023-01-20T13:56:33.009Z,25.37
2023-01-20T13:59:00.692Z,25.57
2023-01-20T14:01:28.682Z,26.77
2023-01-20T14:04:06.983Z,26.07
2023-01-20T14:06:36.089Z,26.60
2023-01-20T14:09:07.867Z,27.07
2023-01-20T14:11:36.577Z,30.27
2023-01-20T14:14:08.038Z,25.53
2023-01-20T14:16:35.466Z,24.33
2023-01-20T14:19:06.147Z,22.70
2023-01-20T14:21:41.015Z,22.23
2023-01-20T14:24:27.897Z,22.40
2023-01-20T14:27:14.093Z,23.67
2023-01-20T14:29:41.442Z,23.23
2023-01-20T14:32:24.327Z,23.20
2023-01-20T14:34:52.294Z,27.67
2023-01-20T14:37:27.682Z,26.67
2023-01-20T14:39:56.943Z,23.83
2023-01-20T14:42:25.257Z,28.53
2023-01-20T14:44:53.747Z,25.37
2023-01-20T14:47:21.981Z,32.43
2023-01-20T14:49:50.689Z,30.00
2023-01-20T14:52:21.928Z,30.60
2023-01-20T14:54:49.852Z,32.47
2023-01-20T14:57:35.238Z,32.97
2023-01-20T15:00:21.426Z,31.67
2023-01-20T15:02:57.932Z,34.20
2023-01-20T15:05:34.621Z,33.57
2023-01-20T15:08:25.347Z,33.93
2023-01-20T15:11:12.362Z,39.20
2023-01-20T15:13:40.488Z,33.90
2023-01-20T15:16:20.777Z,35.00
2023-01-20T15:19:07.020Z,35.20
2023-01-20T15:21:36.306Z,36.57
2023-01-20T15:24:20.503Z,39.97
2023-01-20T15:26:49.029Z,36.87
2023-01-20T15:29:33.144Z,38.30
2023-01-20T15:32:02.328Z,40.00
2023-01-20T15:34:30.331Z,37.80
2023-01-20T15:36:57.918Z,37.93
2023-01-20T15:39:29.163Z,34.77
2023-01-20T15:41:59.484Z,34.20
2023-01-20T15:44:27.072Z,35.20
2023-01-20T15:46:57.245Z,29.93
2023-01-20T15:49:25.667Z,33.07
2023-01-20T15:51:53.160Z,30.97
2023-01-20T15:54:20.491Z,32.20
2023-01-20T15:56:47.957Z,30.67
2023-01-20T15:59:16.451Z,34.30
2023-01-20T16:01:47.335Z,32.00
2023-01-20T16:04:15.517Z,29.83
2023-01-20T16:06:43.279Z,29.53
2023-01-20T16:09:16.001Z,29.43
2023-01-20T16:11:43.331Z,31.80
2023-01-20T16:14:10.666Z,30.80
2023-01-20T18:04:32.211Z,28.80
2023-01-20T18:06:59.810Z,28.47
2023-01-20T18:09:27.169Z,29.77
2023-01-20T18:11:54.549Z,27.77
2023-01-20T18:14:21.954Z,27.27
2023-01-20T18:16:50.270Z,29.33
2023-01-20T18:19:17.961Z,31.70
2023-01-20T18:21:45.689Z,32.13
2023-01-20T18:24:13.476Z,28.37
2023-01-20T18:26:42.750Z,29.87
2023-01-20T18:29:14.968Z,35.70
2023-01-20T18:31:44.980Z,28.27
2023-01-20T18:34:15.846Z,28.10
2023-01-20T18:36:46.016Z,28.53
2023-01-20T18:39:16.502Z,28.00
2023-01-20T18:41:47.299Z,27.33
2023-01-20T18:44:14.998Z,27.03
2023-01-20T18:46:42.901Z,27.47
2023-01-20T18:49:12.875Z,29.17
2023-01-20T18:51:43.247Z,27.53
2023-01-20T18:54:17.847Z,28.97
2023-01-20T18:56:45.761Z,26.97
2023-01-20T18:59:15.007Z,28.83
2023-01-20T19:01:43.182Z,28.80
2023-01-20T19:04:13.454Z,27.73
2023-01-20T19:06:44.502Z,26.27
2023-01-20T19:09:12.947Z,25.40
2023-01-20T19:11:41.013Z,26.37
2023-01-20T19:14:11.823Z,27.03
2023-01-20T19:16:45.208Z,25.17
2023-01-20T19:19:14.719Z,22.53
2023-01-20T19:21:42.628Z,22.03
2023-01-20T19:24:12.454Z,21.27
2023-01-20T19:26:43.110Z,22.50
2023-01-20T19:29:12.945Z,21.20
2023-01-20T19:31:40.812Z,25.67
2023-01-20T19:34:11.592Z,21.43
2023-01-20T19:36:39.274Z,22.80
2023-01-20T19:39:07.275Z,20.37
2023-01-20T19:41:38.079Z,22.70
2023-01-20T19:44:07.918Z,19.73
2023-01-20T19:46:41.323Z,25.47
2023-01-20T19:49:10.335Z,22.93
2023-01-20T19:51:38.191Z,21.60
2023-01-20T19:54:06.155Z,26.37
2023-01-20T19:56:34.881Z,21.97
2023-01-20T19:59:07.518Z,23.63
2023-01-20T20:01:37.336Z,25.97
2023-01-20T20:04:06.048Z,23.13
2023-01-20T20:06:38.275Z,21.20
2023-01-20T20:09:07.295Z,21.37
2023-01-20T20:11:41.023Z,19.73
2023-01-20T20:14:13.376Z,22.33
2023-01-20T20:16:41.357Z,19.93
2023-01-20T20:19:13.294Z,18.13
2023-01-20T20:21:41.131Z,19.27
2023-01-20T20:24:09.067Z,19.37
2023-01-20T20:26:39.779Z,18.80
2023-01-20T20:29:09.142Z,22.57
2023-01-20T20:31:40.006Z,19.37
2023-01-20T20:34:11.824Z,19.27
2023-01-20T20:36:39.857Z,24.07
2023-01-20T20:39:08.843Z,20.63
2023-01-20T20:41:38.937Z,20.13
2023-01-20T20:44:07.298Z,22.50
2023-01-20T20:46:39.541Z,19.73
2023-01-20T20:49:15.816Z,19.60
2023-01-20T20:51:45.897Z,20.57
2023-01-20T20:54:15.341Z,19.00
2023-01-20T20:56:45.433Z,21.37
2023-01-20T20:59:14.013Z,21.87
2023-01-20T21:01:41.539Z,20.13
2023-01-20T21:04:08.992Z,20.93
2023-01-20T21:06:36.421Z,23.30
2023-01-20T21:09:03.724Z,19.70
2023-01-20T21:11:31.097Z,21.47
2023-01-20T21:13:58.744Z,22.63
2023-01-20T21:16:27.628Z,19.80
2023-01-20T21:18:59.455Z,20.13
2023-01-20T21:21:28.870Z,18.83
2023-01-20T21:23:57.968Z,18.20
2023-01-20T21:26:29.632Z,19.43
2023-01-20T21:28:58.509Z,17.43
2023-01-20T21:31:26.826Z,19.00
2023-01-20T21:33:55.465Z,16.73
2023-01-20T21:36:23.932Z,17.33
2023-01-20T21:38:57.843Z,18.10
2023-01-20T21:41:25.383Z,16.47
2023-01-20T21:44:13.148Z,16.17
2023-01-20T21:46:41.974Z,19.03
2023-01-20T21:49:28.331Z,17.70
2023-01-20T21:52:14.814Z,18.53
2023-01-20T21:54:44.900Z,21.13
2023-01-20T21:57:13.322Z,18.10
2023-01-20T21:59:42.794Z,21.20
2023-01-20T22:02:14.753Z,19.50
2023-01-20T22:04:44.229Z,20.63
2023-01-20T22:07:11.510Z,17.33
2023-01-20T22:09:40.304Z,18.03
2023-01-20T22:12:11.067Z,16.47
2023-01-20T22:14:40.425Z,16.50
2023-01-20T22:17:09.700Z,18.30
2023-01-20T22:19:38.433Z,16.47
2023-01-20T22:22:06.441Z,17.93
2023-01-20T22:24:35.515Z,19.83
2023-01-20T22:27:08.786Z,19.40
2023-01-20T22:29:38.766Z,16.87
2023-01-20T22:32:06.192Z,17.00
2023-01-20T22:34:34.964Z,14.87
2023-01-20T22:37:03.365Z,16.93
2023-01-20T22:39:30.761Z,17.93
2023-01-20T22:41:58.144Z,17.40
2023-01-20T22:44:25.700Z,17.83
2023-01-20T22:46:53.971Z,16.17
2023-01-20T22:49:25.123Z,16.60
2023-01-20T22:51:55.182Z,16.60
2023-01-20T22:54:22.532Z,19.43
2023-01-20T22:56:55.881Z,23.47
2023-01-20T22:59:28.321Z,19.57
2023-01-20T23:01:55.758Z,17.20
2023-01-20T23:04:23.316Z,18.37
2023-01-20T23:06:51.888Z,20.47
2023-01-20T23:09:23.109Z,18.73
2023-01-20T23:11:51.875Z,19.33
2023-01-20T23:14:39.806Z,20.93
2023-01-20T23:17:07.366Z,19.93
2023-01-20T23:19:34.754Z,21.90
2023-01-20T23:22:05.386Z,22.17
2023-01-20T23:24:35.716Z,22.83
2023-01-20T23:27:03.799Z,23.60
2023-01-20T23:29:31.139Z,21.43
2023-01-20T23:31:58.920Z,27.13
2023-01-20T23:34:26.311Z,25.67
2023-01-20T23:36:53.682Z,27.27
2023-01-20T23:39:22.787Z,27.30
2023-01-20T23:41:50.143Z,26.13
2023-01-20T23:44:17.579Z,26.13
2023-01-20T23:46:47.542Z,27.70
2023-01-20T23:49:14.861Z,27.90
2023-01-20T23:51:42.224Z,25.63
2023-01-20T23:54:14.919Z,26.67
2023-01-20T23:56:43.282Z,26.73
2023-01-20T23:59:12.078Z,27.03
